sensor_id;sensor_type;location;lat;lon;timestamp;pressure;altitude;pressure_sealevel;temperature;humidity
76378;BME280;65200;49.500;8.654;2023-02-28T00:01:12;101503.66;;;-1.53;68.82
76378;BME280;65200;49.500;8.654;2023-02-28T00:03:38;101503.25;;;-1.45;69.11
76378;BME280;65200;49.500;8.654;2023-02-28T00:06:06;101497.41;;;-1.50;69.15
76378;BME280;65200;49.500;8.654;2023-02-28T00:08:34;101510.44;;;-1.64;69.57
76378;BME280;65200;49.500;8.654;2023-02-28T00:11:01;101508.69;;;-1.79;70.78
76378;BME280;65200;49.500;8.654;2023-02-28T00:13:28;101510.88;;;-1.87;71.53
76378;BME280;65200;49.500;8.654;2023-02-28T00:15:59;101507.66;;;-1.92;71.58
76378;BME280;65200;49.500;8.654;2023-02-28T00:18:26;101503.25;;;-1.76;70.31
76378;BME280;65200;49.500;8.654;2023-02-28T00:20:53;101504.25;;;-1.94;71.81
76378;BME280;65200;49.500;8.654;2023-02-28T00:23:19;101507.84;;;-1.95;71.87
76378;BME280;65200;49.500;8.654;2023-02-28T00:25:47;101504.81;;;-2.20;72.30
76378;BME280;65200;49.500;8.654;2023-02-28T00:28:13;101505.75;;;-2.21;72.52
76378;BME280;65200;49.500;8.654;2023-02-28T00:30:40;101498.31;;;-2.13;72.10
76378;BME280;65200;49.500;8.654;2023-02-28T00:33:06;101497.47;;;-2.14;72.06
76378;BME280;65200;49.500;8.654;2023-02-28T00:35:32;101506.84;;;-2.10;71.66
76378;BME280;65200;49.500;8.654;2023-02-28T00:37:59;101499.13;;;-2.28;72.90
76378;BME280;65200;49.500;8.654;2023-02-28T00:40:25;101500.88;;;-2.29;72.59
76378;BME280;65200;49.500;8.654;2023-02-28T00:42:53;101502.91;;;-2.34;72.74
76378;BME280;65200;49.500;8.654;2023-02-28T00:45:19;101501.94;;;-2.16;72.32
76378;BME280;65200;49.500;8.654;2023-02-28T00:47:46;101503.47;;;-2.12;72.09
76378;BME280;65200;49.500;8.654;2023-02-28T00:50:15;101504.19;;;-1.93;71.17
76378;BME280;65200;49.500;8.654;2023-02-28T00:52:41;101504.75;;;-2.03;72.15
76378;BME280;65200;49.500;8.654;2023-02-28T00:55:09;101504.75;;;-2.03;71.88
76378;BME280;65200;49.500;8.654;2023-02-28T00:57:35;101501.53;;;-2.08;72.17
76378;BME280;65200;49.500;8.654;2023-02-28T01:00:05;101497.53;;;-2.00;71.80
76378;BME280;65200;49.500;8.654;2023-02-28T01:02:32;101513.97;;;-2.12;72.84
76378;BME280;65200;49.500;8.654;2023-02-28T01:04:58;101504.81;;;-2.05;72.13
76378;BME280;65200;49.500;8.654;2023-02-28T01:07:24;101514.81;;;-2.11;72.77
76378;BME280;65200;49.500;8.654;2023-02-28T01:09:51;101511.22;;;-2.26;73.64
76378;BME280;65200;49.500;8.654;2023-02-28T01:12:17;101502.34;;;-2.23;73.19
76378;BME280;65200;49.500;8.654;2023-02-28T01:14:44;101500.63;;;-2.24;73.51
76378;BME280;65200;49.500;8.654;2023-02-28T01:17:11;101496.84;;;-2.34;74.11
76378;BME280;65200;49.500;8.654;2023-02-28T01:19:38;101498.19;;;-2.27;73.19
76378;BME280;65200;49.500;8.654;2023-02-28T01:22:05;101491.00;;;-2.24;72.91
76378;BME280;65200;49.500;8.654;2023-02-28T01:24:33;101506.34;;;-2.16;72.96
76378;BME280;65200;49.500;8.654;2023-02-28T01:26:59;101498.19;;;-2.27;73.71
76378;BME280;65200;49.500;8.654;2023-02-28T01:29:25;101502.81;;;-2.32;73.74
76378;BME280;65200;49.500;8.654;2023-02-28T01:31:52;101500.53;;;-2.38;73.86
76378;BME280;65200;49.500;8.654;2023-02-28T01:34:20;101504.31;;;-2.44;74.37
76378;BME280;65200;49.500;8.654;2023-02-28T01:36:46;101500.13;;;-2.31;74.12
76378;BME280;65200;49.500;8.654;2023-02-28T01:39:13;101501.41;;;-2.22;73.30
76378;BME280;65200;49.500;8.654;2023-02-28T01:41:39;101502.75;;;-2.31;74.04
76378;BME280;65200;49.500;8.654;2023-02-28T01:44:07;101500.13;;;-2.31;73.79
76378;BME280;65200;49.500;8.654;2023-02-28T01:46:53;101500.53;;;-2.38;74.56
76378;BME280;65200;49.500;8.654;2023-02-28T01:49:20;101491.25;;;-2.61;75.02
76378;BME280;65200;49.500;8.654;2023-02-28T01:51:49;101496.25;;;-2.56;75.01
76378;BME280;65200;49.500;8.654;2023-02-28T01:54:19;101494.47;;;-2.56;74.75
76378;BME280;65200;49.500;8.654;2023-02-28T01:56:50;101500.25;;;-2.66;75.72
76378;BME280;65200;49.500;8.654;2023-02-28T01:59:22;101489.78;;;-2.66;75.50
76378;BME280;65200;49.500;8.654;2023-02-28T02:01:50;101487.00;;;-2.63;75.31
76378;BME280;65200;49.500;8.654;2023-02-28T02:04:17;101486.84;;;-2.78;75.51
76378;BME280;65200;49.500;8.654;2023-02-28T02:06:47;101489.47;;;-2.78;75.89
76378;BME280;65200;49.500;8.654;2023-02-28T02:09:14;101482.16;;;-2.71;75.99
76378;BME280;65200;49.500;8.654;2023-02-28T02:11:42;101480.91;;;-2.64;75.98
76378;BME280;65200;49.500;8.654;2023-02-28T02:14:26;101484.44;;;-2.65;76.14
76378;BME280;65200;49.500;8.654;2023-02-28T02:17:06;101478.38;;;-2.65;75.50
76378;BME280;65200;49.500;8.654;2023-02-28T02:20:16;101487.13;;;-2.49;74.70
76378;BME280;65200;49.500;8.654;2023-02-28T02:23:07;101473.72;;;-2.60;75.38
76378;BME280;65200;49.500;8.654;2023-02-28T02:25:40;101472.88;;;-2.78;75.81
76378;BME280;65200;49.500;8.654;2023-02-28T02:28:22;101481.00;;;-2.83;76.84
76378;BME280;65200;49.500;8.654;2023-02-28T02:31:20;101478.66;;;-2.71;76.26
76378;BME280;65200;49.500;8.654;2023-02-28T02:34:27;101471.19;;;-2.62;75.51
76378;BME280;65200;49.500;8.654;2023-02-28T02:37:04;101473.41;;;-2.71;75.64
76378;BME280;65200;49.500;8.654;2023-02-28T02:39:40;101467.72;;;-2.80;75.72
76378;BME280;65200;49.500;8.654;2023-02-28T02:42:13;101473.03;;;-2.64;74.94
76378;BME280;65200;49.500;8.654;2023-02-28T02:44:45;101466.03;;;-2.63;75.01
76378;BME280;65200;49.500;8.654;2023-02-28T02:47:17;101476.97;;;-2.55;74.81
76378;BME280;65200;49.500;8.654;2023-02-28T02:49:47;101477.44;;;-2.64;75.70
76378;BME280;65200;49.500;8.654;2023-02-28T02:52:17;101477.34;;;-2.63;75.16
76378;BME280;65200;49.500;8.654;2023-02-28T02:54:45;101470.94;;;-2.57;75.11
76378;BME280;65200;49.500;8.654;2023-02-28T02:57:17;101473.94;;;-2.65;74.78
76378;BME280;65200;49.500;8.654;2023-02-28T02:59:46;101477.34;;;-2.63;75.30
76378;BME280;65200;49.500;8.654;2023-02-28T03:02:15;101479.66;;;-2.57;75.15
76378;BME280;65200;49.500;8.654;2023-02-28T03:04:48;101478.28;;;-2.64;74.88
76378;BME280;65200;49.500;8.654;2023-02-28T03:07:16;101474.09;;;-2.68;75.36
76378;BME280;65200;49.500;8.654;2023-02-28T03:09:50;101475.25;;;-2.56;74.72
76378;BME280;65200;49.500;8.654;2023-02-28T03:12:17;101467.75;;;-2.47;74.19
76378;BME280;65200;49.500;8.654;2023-02-28T03:14:55;101470.84;;;-2.56;74.36
76378;BME280;65200;49.500;8.654;2023-02-28T03:17:40;101470.78;;;-2.71;74.96
76378;BME280;65200;49.500;8.654;2023-02-28T03:20:17;101467.19;;;-2.69;75.54
76378;BME280;65200;49.500;8.654;2023-02-28T03:22:52;101464.44;;;-2.83;75.67
76378;BME280;65200;49.500;8.654;2023-02-28T03:25:30;101465.25;;;-2.83;75.58
76378;BME280;65200;49.500;8.654;2023-02-28T03:28:04;101462.47;;;-2.80;75.52
76378;BME280;65200;49.500;8.654;2023-02-28T03:30:37;101458.94;;;-2.78;74.86
76378;BME280;65200;49.500;8.654;2023-02-28T03:33:10;101470.03;;;-2.73;75.20
76378;BME280;65200;49.500;8.654;2023-02-28T03:35:42;101463.63;;;-2.68;74.87
76378;BME280;65200;49.500;8.654;2023-02-28T03:38:14;101458.09;;;-2.79;74.88
76378;BME280;65200;49.500;8.654;2023-02-28T03:40:47;101465.53;;;-2.71;75.02
76378;BME280;65200;49.500;8.654;2023-02-28T03:43:18;101466.03;;;-2.63;74.67
76378;BME280;65200;49.500;8.654;2023-02-28T03:45:48;101463.84;;;-2.72;74.96
76378;BME280;65200;49.500;8.654;2023-02-28T03:48:19;101465.09;;;-2.62;74.59
76378;BME280;65200;49.500;8.654;2023-02-28T03:50:52;101464.38;;;-2.66;74.63
76378;BME280;65200;49.500;8.654;2023-02-28T03:53:22;101464.88;;;-2.75;75.25
76378;BME280;65200;49.500;8.654;2023-02-28T03:55:54;101467.28;;;-2.55;74.25
76378;BME280;65200;49.500;8.654;2023-02-28T03:58:28;101475.94;;;-2.53;74.40
76378;BME280;65200;49.500;8.654;2023-02-28T04:01:02;101462.31;;;-2.44;74.13
76378;BME280;65200;49.500;8.654;2023-02-28T04:03:33;101474.53;;;-2.43;74.28
76378;BME280;65200;49.500;8.654;2023-02-28T04:06:01;101471.75;;;-2.24;73.74
76378;BME280;65200;49.500;8.654;2023-02-28T04:08:28;101464.50;;;-2.19;73.26
76378;BME280;65200;49.500;8.654;2023-02-28T04:11:00;101464.09;;;-2.12;72.92
76378;BME280;65200;49.500;8.654;2023-02-28T04:13:27;101464.25;;;-2.15;72.80
76378;BME280;65200;49.500;8.654;2023-02-28T04:15:54;101470.00;;;-2.24;73.68
76378;BME280;65200;49.500;8.654;2023-02-28T04:18:20;101468.41;;;-2.26;73.33
76378;BME280;65200;49.500;8.654;2023-02-28T04:20:47;101471.72;;;-2.23;73.67
76378;BME280;65200;49.500;8.654;2023-02-28T04:23:14;101469.91;;;-2.22;73.41
76378;BME280;65200;49.500;8.654;2023-02-28T04:25:41;101461.50;;;-2.29;73.88
76378;BME280;65200;49.500;8.654;2023-02-28T04:28:08;101469.47;;;-2.30;73.41
76378;BME280;65200;49.500;8.654;2023-02-28T04:30:37;101471.31;;;-2.32;74.27
76378;BME280;65200;49.500;8.654;2023-02-28T04:33:03;101472.19;;;-2.32;74.32
76378;BME280;65200;49.500;8.654;2023-02-28T04:35:30;101463.22;;;-2.28;73.75
76378;BME280;65200;49.500;8.654;2023-02-28T04:37:56;101465.50;;;-2.22;73.96
76378;BME280;65200;49.500;8.654;2023-02-28T04:40:24;101471.75;;;-2.24;73.70
76378;BME280;65200;49.500;8.654;2023-02-28T04:42:50;101462.19;;;-2.25;73.25
76378;BME280;65200;49.500;8.654;2023-02-28T04:45:17;101460.88;;;-2.17;73.53
76378;BME280;65200;49.500;8.654;2023-02-28T04:47:43;101462.06;;;-2.07;73.45
76378;BME280;65200;49.500;8.654;2023-02-28T04:50:10;101465.19;;;-2.16;72.97
76378;BME280;65200;49.500;8.654;2023-02-28T04:52:36;101467.31;;;-2.07;72.75
76378;BME280;65200;49.500;8.654;2023-02-28T04:55:04;101454.84;;;-2.03;72.35
76378;BME280;65200;49.500;8.654;2023-02-28T04:57:32;101464.00;;;-1.95;72.17
76378;BME280;65200;49.500;8.654;2023-02-28T04:59:58;101466.28;;;-2.04;72.71
76378;BME280;65200;49.500;8.654;2023-02-28T05:02:25;101473.81;;;-1.98;72.15
76378;BME280;65200;49.500;8.654;2023-02-28T05:04:51;101468.06;;;-2.05;72.83
76378;BME280;65200;49.500;8.654;2023-02-28T05:07:17;101471.63;;;-2.06;72.67
76378;BME280;65200;49.500;8.654;2023-02-28T05:09:44;101467.81;;;-2.16;73.38
76378;BME280;65200;49.500;8.654;2023-02-28T05:12:10;101471.28;;;-2.00;72.42
76378;BME280;65200;49.500;8.654;2023-02-28T05:14:38;101472.91;;;-1.97;72.61
76378;BME280;65200;49.500;8.654;2023-02-28T05:17:04;101471.06;;;-1.95;72.53
76378;BME280;65200;49.500;8.654;2023-02-28T05:19:31;101472.50;;;-2.05;72.96
76378;BME280;65200;49.500;8.654;2023-02-28T05:21:57;101478.56;;;-2.05;73.01
76378;BME280;65200;49.500;8.654;2023-02-28T05:24:24;101470.09;;;-2.10;73.38
76378;BME280;65200;49.500;8.654;2023-02-28T05:26:53;101480.09;;;-2.01;72.79
76378;BME280;65200;49.500;8.654;2023-02-28T05:29:19;101478.31;;;-2.16;73.59
76378;BME280;65200;49.500;8.654;2023-02-28T05:31:47;101475.69;;;-2.16;73.25
76378;BME280;65200;49.500;8.654;2023-02-28T05:34:14;101485.66;;;-2.22;74.01
76378;BME280;65200;49.500;8.654;2023-02-28T05:36:41;101466.03;;;-2.15;72.88
76378;BME280;65200;49.500;8.654;2023-02-28T05:39:07;101473.91;;;-2.00;72.23
76378;BME280;65200;49.500;8.654;2023-02-28T05:41:39;101474.09;;;-2.03;72.75
76378;BME280;65200;49.500;8.654;2023-02-28T05:44:05;101479.94;;;-2.13;73.55
76378;BME280;65200;49.500;8.654;2023-02-28T05:46:32;101480.94;;;-2.16;73.66
76378;BME280;65200;49.500;8.654;2023-02-28T05:49:00;101489.31;;;-2.09;72.35
76378;BME280;65200;49.500;8.654;2023-02-28T05:51:26;101483.16;;;-2.08;72.86
76378;BME280;65200;49.500;8.654;2023-02-28T05:53:53;101488.41;;;-2.08;72.70
76378;BME280;65200;49.500;8.654;2023-02-28T05:56:19;101491.59;;;-2.19;73.14
76378;BME280;65200;49.500;8.654;2023-02-28T05:58:45;101487.16;;;-2.34;73.63
76378;BME280;65200;49.500;8.654;2023-02-28T06:01:32;101485.22;;;-2.30;73.67
76378;BME280;65200;49.500;8.654;2023-02-28T06:04:00;101492.03;;;-2.11;72.34
76378;BME280;65200;49.500;8.654;2023-02-28T06:06:27;101494.50;;;-2.08;72.17
76378;BME280;65200;49.500;8.654;2023-02-28T06:08:54;101486.84;;;-2.28;72.96
76378;BME280;65200;49.500;8.654;2023-02-28T06:11:21;101489.47;;;-2.28;72.47
76378;BME280;65200;49.500;8.654;2023-02-28T06:13:53;101493.38;;;-2.19;72.16
76378;BME280;65200;49.500;8.654;2023-02-28T06:16:20;101487.72;;;-2.12;71.63
76378;BME280;65200;49.500;8.654;2023-02-28T06:18:47;101488.84;;;-2.00;71.12
76378;BME280;65200;49.500;8.654;2023-02-28T06:21:15;101499.94;;;-1.95;70.97
76378;BME280;65200;49.500;8.654;2023-02-28T06:23:41;101497.88;;;-1.90;70.61
76378;BME280;65200;49.500;8.654;2023-02-28T06:26:07;101498.75;;;-2.05;71.24
76378;BME280;65200;49.500;8.654;2023-02-28T06:28:34;101501.13;;;-2.01;71.06
76378;BME280;65200;49.500;8.654;2023-02-28T06:31:06;101501.81;;;-1.97;71.19
76378;BME280;65200;49.500;8.654;2023-02-28T06:33:33;101498.84;;;-1.91;71.02
76378;BME280;65200;49.500;8.654;2023-02-28T06:35:59;101498.25;;;-1.81;70.72
76378;BME280;65200;49.500;8.654;2023-02-28T06:38:27;101507.41;;;-1.72;70.15
76378;BME280;65200;49.500;8.654;2023-02-28T06:40:54;101500.69;;;-1.62;70.16
76378;BME280;65200;49.500;8.654;2023-02-28T06:43:21;101509.59;;;-1.49;69.31
76378;BME280;65200;49.500;8.654;2023-02-28T06:45:47;101507.28;;;-1.40;68.59
76378;BME280;65200;49.500;8.654;2023-02-28T06:48:14;101511.28;;;-1.32;68.85
76378;BME280;65200;49.500;8.654;2023-02-28T06:50:40;101517.41;;;-1.32;69.38
76378;BME280;65200;49.500;8.654;2023-02-28T06:53:07;101514.41;;;-1.26;68.96
76378;BME280;65200;49.500;8.654;2023-02-28T06:55:37;101514.91;;;-1.19;68.98
76378;BME280;65200;49.500;8.654;2023-02-28T06:58:04;101518.53;;;-1.06;67.60
76378;BME280;65200;49.500;8.654;2023-02-28T07:00:39;101517.75;;;-0.93;67.72
76378;BME280;65200;49.500;8.654;2023-02-28T07:03:06;101512.03;;;-0.85;67.56
76378;BME280;65200;49.500;8.654;2023-02-28T07:05:34;101520.97;;;-0.74;67.30
76378;BME280;65200;49.500;8.654;2023-02-28T07:08:01;101514.97;;;-0.62;66.42
76378;BME280;65200;49.500;8.654;2023-02-28T07:10:28;101519.31;;;-0.47;66.89
76378;BME280;65200;49.500;8.654;2023-02-28T07:12:56;101520.19;;;-0.32;65.80
76378;BME280;65200;49.500;8.654;2023-02-28T07:15:22;101524.44;;;-0.16;65.59
76378;BME280;65200;49.500;8.654;2023-02-28T07:17:48;101522.19;;;-0.08;64.29
76378;BME280;65200;49.500;8.654;2023-02-28T07:20:15;101525.94;;;0.03;64.43
76378;BME280;65200;49.500;8.654;2023-02-28T07:22:42;101534.31;;;0.09;63.29
76378;BME280;65200;49.500;8.654;2023-02-28T07:25:09;101534.22;;;0.11;63.83
76378;BME280;65200;49.500;8.654;2023-02-28T07:27:35;101527.38;;;0.08;63.82
76378;BME280;65200;49.500;8.654;2023-02-28T07:30:04;101536.81;;;0.25;63.81
76378;BME280;65200;49.500;8.654;2023-02-28T07:32:31;101537.78;;;0.24;64.30
76378;BME280;65200;49.500;8.654;2023-02-28T07:34:57;101536.63;;;0.42;64.32
76378;BME280;65200;49.500;8.654;2023-02-28T07:37:24;101537.94;;;0.49;62.95
76378;BME280;65200;49.500;8.654;2023-02-28T07:39:50;101532.16;;;0.56;63.12
76378;BME280;65200;49.500;8.654;2023-02-28T07:42:16;101539.22;;;0.56;63.14
76378;BME280;65200;49.500;8.654;2023-02-28T07:44:43;101539.41;;;0.53;63.00
76378;BME280;65200;49.500;8.654;2023-02-28T07:47:11;101530.75;;;0.51;61.90
76378;BME280;65200;49.500;8.654;2023-02-28T07:49:37;101536.97;;;0.50;62.37
76378;BME280;65200;49.500;8.654;2023-02-28T07:52:05;101533.34;;;0.38;62.01
76378;BME280;65200;49.500;8.654;2023-02-28T07:54:32;101537.66;;;0.39;63.03
76378;BME280;65200;49.500;8.654;2023-02-28T07:56:59;101539.25;;;0.42;62.24
76378;BME280;65200;49.500;8.654;2023-02-28T07:59:26;101541.69;;;0.45;62.59
76378;BME280;65200;49.500;8.654;2023-02-28T08:01:52;101545.00;;;0.48;61.86
76378;BME280;65200;49.500;8.654;2023-02-28T08:04:20;101553.38;;;0.55;63.04
76378;BME280;65200;49.500;8.654;2023-02-28T08:06:46;101552.41;;;0.56;62.56
76378;BME280;65200;49.500;8.654;2023-02-28T08:09:12;101556.16;;;0.66;61.27
76378;BME280;65200;49.500;8.654;2023-02-28T08:11:39;101558.13;;;0.76;62.03
76378;BME280;65200;49.500;8.654;2023-02-28T08:14:06;101544.63;;;0.81;62.96
76378;BME280;65200;49.500;8.654;2023-02-28T08:16:32;101546.09;;;0.85;60.95
76378;BME280;65200;49.500;8.654;2023-02-28T08:18:58;101547.72;;;0.87;61.69
76378;BME280;65200;49.500;8.654;2023-02-28T08:21:26;101545.53;;;0.94;60.66
76378;BME280;65200;49.500;8.654;2023-02-28T08:23:52;101544.13;;;0.88;61.01
76378;BME280;65200;49.500;8.654;2023-02-28T08:26:20;101538.44;;;0.94;60.67
76378;BME280;65200;49.500;8.654;2023-02-28T08:28:46;101533.31;;;1.05;60.39
76378;BME280;65200;49.500;8.654;2023-02-28T08:31:14;101544.53;;;1.09;61.15
76378;BME280;65200;49.500;8.654;2023-02-28T08:33:41;101539.25;;;1.09;60.64
76378;BME280;65200;49.500;8.654;2023-02-28T08:36:10;101543.69;;;1.21;60.79
76378;BME280;65200;49.500;8.654;2023-02-28T08:38:38;101536.84;;;1.31;60.48
76378;BME280;65200;49.500;8.654;2023-02-28T08:41:06;101533.78;;;1.37;58.78
76378;BME280;65200;49.500;8.654;2023-02-28T08:43:34;101536.75;;;1.45;60.43
76378;BME280;65200;49.500;8.654;2023-02-28T08:46:00;101536.16;;;1.54;60.40
76378;BME280;65200;49.500;8.654;2023-02-28T08:48:28;101532.22;;;1.34;60.34
76378;BME280;65200;49.500;8.654;2023-02-28T08:50:56;101535.28;;;1.54;59.19
76378;BME280;65200;49.500;8.654;2023-02-28T08:53:23;101532.75;;;1.52;58.90
76378;BME280;65200;49.500;8.654;2023-02-28T08:55:57;101530.44;;;1.48;58.72
76378;BME280;65200;49.500;8.654;2023-02-28T08:58:23;101540.59;;;1.66;57.22
76378;BME280;65200;49.500;8.654;2023-02-28T09:00:50;101541.22;;;1.82;56.69
76378;BME280;65200;49.500;8.654;2023-02-28T09:03:16;101534.47;;;1.91;57.22
76378;BME280;65200;49.500;8.654;2023-02-28T09:05:51;101533.84;;;2.00;56.13
76378;BME280;65200;49.500;8.654;2023-02-28T09:08:18;101535.25;;;2.16;55.63
76378;BME280;65200;49.500;8.654;2023-02-28T09:10:44;101531.09;;;2.01;55.08
76378;BME280;65200;49.500;8.654;2023-02-28T09:13:12;101536.19;;;2.28;55.23
76378;BME280;65200;49.500;8.654;2023-02-28T09:15:38;101524.56;;;2.30;53.25
76378;BME280;65200;49.500;8.654;2023-02-28T09:18:05;101538.84;;;2.40;53.74
76378;BME280;65200;49.500;8.654;2023-02-28T09:20:31;101532.06;;;2.36;53.11
76378;BME280;65200;49.500;8.654;2023-02-28T09:22:58;101537.53;;;2.46;53.88
76378;BME280;65200;49.500;8.654;2023-02-28T09:25:24;101544.94;;;2.53;53.15
76378;BME280;65200;49.500;8.654;2023-02-28T09:27:51;101543.53;;;2.60;52.95
76378;BME280;65200;49.500;8.654;2023-02-28T09:30:19;101537.81;;;2.66;53.14
76378;BME280;65200;49.500;8.654;2023-02-28T09:32:45;101534.66;;;2.85;51.80
76378;BME280;65200;49.500;8.654;2023-02-28T09:35:17;101522.50;;;2.83;52.02
76378;BME280;65200;49.500;8.654;2023-02-28T09:37:44;101533.13;;;2.94;52.74
76378;BME280;65200;49.500;8.654;2023-02-28T09:40:12;101529.22;;;2.99;51.87
76378;BME280;65200;49.500;8.654;2023-02-28T09:42:40;101529.41;;;2.96;52.86
76378;BME280;65200;49.500;8.654;2023-02-28T09:45:13;101524.78;;;3.11;52.34
76378;BME280;65200;49.500;8.654;2023-02-28T09:47:48;101520.22;;;3.47;52.53
76378;BME280;65200;49.500;8.654;2023-02-28T09:50:23;101513.31;;;3.45;51.65
76378;BME280;65200;49.500;8.654;2023-02-28T09:52:55;101517.31;;;3.39;51.84
76378;BME280;65200;49.500;8.654;2023-02-28T09:55:26;101521.00;;;3.37;52.06
76378;BME280;65200;49.500;8.654;2023-02-28T09:57:55;101519.44;;;3.23;52.81
76378;BME280;65200;49.500;8.654;2023-02-28T10:00:29;101519.97;;;3.16;53.16
76378;BME280;65200;49.500;8.654;2023-02-28T10:03:15;101516.06;;;3.32;51.23
76378;BME280;65200;49.500;8.654;2023-02-28T10:05:51;101519.88;;;3.17;51.97
76378;BME280;65200;49.500;8.654;2023-02-28T10:08:22;101524.84;;;2.98;52.38
76378;BME280;65200;49.500;8.654;2023-02-28T10:10:51;101526.66;;;2.74;53.53
76378;BME280;65200;49.500;8.654;2023-02-28T10:13:24;101523.31;;;2.83;52.24
76378;BME280;65200;49.500;8.654;2023-02-28T10:15:54;101521.38;;;2.74;53.27
76378;BME280;65200;49.500;8.654;2023-02-28T10:18:26;101530.78;;;2.78;53.49
76378;BME280;65200;49.500;8.654;2023-02-28T10:20:56;101525.78;;;2.86;52.08
76378;BME280;65200;49.500;8.654;2023-02-28T10:23:26;101528.72;;;2.58;53.19
76378;BME280;65200;49.500;8.654;2023-02-28T10:25:55;101526.59;;;2.87;52.39
76378;BME280;65200;49.500;8.654;2023-02-28T10:28:25;101529.06;;;2.77;53.05
76378;BME280;65200;49.500;8.654;2023-02-28T10:30:53;101527.66;;;3.08;52.16
76378;BME280;65200;49.500;8.654;2023-02-28T10:33:24;101523.84;;;3.12;50.77
76378;BME280;65200;49.500;8.654;2023-02-28T10:35:52;101517.00;;;3.66;49.84
76378;BME280;65200;49.500;8.654;2023-02-28T10:38:22;101526.69;;;4.22;50.44
76378;BME280;65200;49.500;8.654;2023-02-28T10:40:49;101518.94;;;4.41;48.63
76378;BME280;65200;49.500;8.654;2023-02-28T10:43:21;101514.75;;;4.81;50.85
76378;BME280;65200;49.500;8.654;2023-02-28T10:45:55;101514.97;;;4.78;49.09
76378;BME280;65200;49.500;8.654;2023-02-28T10:48:31;101517.44;;;4.59;47.53
76378;BME280;65200;49.500;8.654;2023-02-28T10:50:58;101513.75;;;4.93;51.19
76378;BME280;65200;49.500;8.654;2023-02-28T10:53:34;101498.50;;;4.75;50.13
76378;BME280;65200;49.500;8.654;2023-02-28T10:56:03;101500.16;;;4.76;46.58
76378;BME280;65200;49.500;8.654;2023-02-28T10:58:33;101513.28;;;4.88;49.27
76378;BME280;65200;49.500;8.654;2023-02-28T11:01:14;101507.78;;;4.69;48.22
76378;BME280;65200;49.500;8.654;2023-02-28T11:03:43;101512.13;;;4.70;47.37
76378;BME280;65200;49.500;8.654;2023-02-28T11:06:16;101507.75;;;4.80;46.62
76378;BME280;65200;49.500;8.654;2023-02-28T11:08:45;101517.13;;;4.95;46.89
76378;BME280;65200;49.500;8.654;2023-02-28T11:11:13;101510.41;;;5.12;45.02
76378;BME280;65200;49.500;8.654;2023-02-28T11:13:39;101494.00;;;4.75;44.87
76378;BME280;65200;49.500;8.654;2023-02-28T11:16:09;101516.22;;;4.74;46.67
76378;BME280;65200;49.500;8.654;2023-02-28T11:18:40;101504.13;;;4.81;46.10
76378;BME280;65200;49.500;8.654;2023-02-28T11:21:16;101502.69;;;4.77;45.33
76378;BME280;65200;49.500;8.654;2023-02-28T11:23:44;101509.28;;;4.51;45.35
76378;BME280;65200;49.500;8.654;2023-02-28T11:26:10;101506.66;;;4.29;46.11
76378;BME280;65200;49.500;8.654;2023-02-28T11:28:39;101492.31;;;4.74;44.53
76378;BME280;65200;49.500;8.654;2023-02-28T11:31:16;101501.44;;;4.92;45.94
76378;BME280;65200;49.500;8.654;2023-02-28T11:33:46;101492.63;;;4.49;48.46
76378;BME280;65200;49.500;8.654;2023-02-28T11:36:19;101500.72;;;4.90;48.50
76378;BME280;65200;49.500;8.654;2023-02-28T11:38:47;101489.38;;;4.88;48.58
76378;BME280;65200;49.500;8.654;2023-02-28T11:41:28;101481.00;;;4.93;48.61
76378;BME280;65200;49.500;8.654;2023-02-28T11:44:08;101485.75;;;4.89;51.14
76378;BME280;65200;49.500;8.654;2023-02-28T11:46:41;101485.03;;;4.87;49.34
76378;BME280;65200;49.500;8.654;2023-02-28T11:49:23;101486.94;;;4.65;49.57
76378;BME280;65200;49.500;8.654;2023-02-28T11:51:54;101486.72;;;4.88;50.33
76378;BME280;65200;49.500;8.654;2023-02-28T11:54:35;101480.06;;;4.94;49.92
76378;BME280;65200;49.500;8.654;2023-02-28T11:57:19;101481.72;;;4.95;49.53
76378;BME280;65200;49.500;8.654;2023-02-28T12:00:00;101479.66;;;4.98;49.74
76378;BME280;65200;49.500;8.654;2023-02-28T12:02:29;101486.44;;;5.23;48.64
76378;BME280;65200;49.500;8.654;2023-02-28T12:05:11;101480.34;;;5.11;47.33
76378;BME280;65200;49.500;8.654;2023-02-28T12:07:49;101485.00;;;5.19;49.84
76378;BME280;65200;49.500;8.654;2023-02-28T12:10:23;101476.13;;;5.50;47.38
76378;BME280;65200;49.500;8.654;2023-02-28T12:13:02;101485.78;;;5.72;46.34
76378;BME280;65200;49.500;8.654;2023-02-28T12:15:43;101470.66;;;5.72;45.83
76378;BME280;65200;49.500;8.654;2023-02-28T12:18:28;101471.47;;;5.42;46.42
76378;BME280;65200;49.500;8.654;2023-02-28T12:21:04;101478.19;;;5.46;47.32
76378;BME280;65200;49.500;8.654;2023-02-28T12:23:59;101479.97;;;5.36;46.99
76378;BME280;65200;49.500;8.654;2023-02-28T12:26:35;101470.81;;;5.29;48.62
76378;BME280;65200;49.500;8.654;2023-02-28T12:29:10;101478.41;;;5.54;45.75
76378;BME280;65200;49.500;8.654;2023-02-28T12:31:42;101472.59;;;5.91;46.11
76378;BME280;65200;49.500;8.654;2023-02-28T12:34:13;101480.69;;;5.59;44.29
76378;BME280;65200;49.500;8.654;2023-02-28T12:36:43;101484.31;;;5.37;45.76
76378;BME280;65200;49.500;8.654;2023-02-28T12:39:12;101477.94;;;5.29;46.87
76378;BME280;65200;49.500;8.654;2023-02-28T12:41:46;101481.13;;;5.02;46.24
76378;BME280;65200;49.500;8.654;2023-02-28T12:44:16;101472.22;;;4.92;46.97
76378;BME280;65200;49.500;8.654;2023-02-28T12:46:46;101482.28;;;5.09;49.38
76378;BME280;65200;49.500;8.654;2023-02-28T12:49:16;101481.13;;;5.43;48.38
76378;BME280;65200;49.500;8.654;2023-02-28T12:51:44;101480.13;;;5.65;44.23
76378;BME280;65200;49.500;8.654;2023-02-28T12:54:18;101473.28;;;5.21;45.28
76378;BME280;65200;49.500;8.654;2023-02-28T12:56:52;101471.00;;;5.37;46.05
76378;BME280;65200;49.500;8.654;2023-02-28T12:59:24;101463.47;;;5.84;44.06
76378;BME280;65200;49.500;8.654;2023-02-28T13:02:01;101464.31;;;5.84;43.24
76378;BME280;65200;49.500;8.654;2023-02-28T13:04:42;101476.97;;;5.50;45.87
76378;BME280;65200;49.500;8.654;2023-02-28T13:10:19;101475.34;;;5.59;44.59
76378;BME280;65200;49.500;8.654;2023-02-28T13:12:50;101467.25;;;5.40;45.45